sensor_id;sensor_type;location;lat;lon;timestamp;pressure;altitude;pressure_sealevel;temperature;humidity
10014;BME280;45684;48.358;10.746;2023-01-30T00:02:23;96790.00;;;-1.66;100.00
10014;BME280;45684;48.358;10.746;2023-01-30T00:04:51;96781.69;;;-1.69;100.00
10014;BME280;45684;48.358;10.746;2023-01-30T00:07:21;96780.09;;;-1.70;100.00
10014;BME280;45684;48.358;10.746;2023-01-30T00:09:48;96773.16;;;-1.71;100.00
10014;BME280;45684;48.358;10.746;2023-01-30T00:12:16;96757.25;;;-1.71;100.00
10014;BME280;45684;48.358;10.746;2023-01-30T00:14:44;96763.81;;;-1.74;100.00
10014;BME280;45684;48.358;10.746;2023-01-30T00:17:12;96762.44;;;-1.76;100.00
10014;BME280;45684;48.358;10.746;2023-01-30T00:19:40;96751.03;;;-1.77;100.00
10014;BME280;45684;48.358;10.746;2023-01-30T00:22:07;96741.66;;;-1.80;100.00
10014;BME280;45684;48.358;10.746;2023-01-30T00:24:37;96734.66;;;-1.74;100.00
10014;BME280;45684;48.358;10.746;2023-01-30T00:27:05;96734.22;;;-1.71;100.00
10014;BME280;45684;48.358;10.746;2023-01-30T00:29:34;96730.75;;;-1.71;100.00
10014;BME280;45684;48.358;10.746;2023-01-30T00:32:02;96732.13;;;-1.69;100.00
10014;BME280;45684;48.358;10.746;2023-01-30T00:34:30;96726.25;;;-1.71;100.00
10014;BME280;45684;48.358;10.746;2023-01-30T00:36:58;96731.78;;;-1.72;100.00
10014;BME280;45684;48.358;10.746;2023-01-30T00:39:34;96730.75;;;-1.71;100.00
10014;BME280;45684;48.358;10.746;2023-01-30T00:42:03;96721.19;;;-1.72;100.00
10014;BME280;45684;48.358;10.746;2023-01-30T00:44:49;96726.25;;;-1.71;100.00
10014;BME280;45684;48.358;10.746;2023-01-30T00:47:34;96726.94;;;-1.75;100.00
10014;BME280;45684;48.358;10.746;2023-01-30T00:50:03;96728.78;;;-1.76;100.00
10014;BME280;45684;48.358;10.746;2023-01-30T00:52:31;96716.75;;;-1.78;100.00
10014;BME280;45684;48.358;10.746;2023-01-30T00:54:58;96710.41;;;-1.77;100.00
10014;BME280;45684;48.358;10.746;2023-01-30T00:57:28;96711.84;;;-1.75;100.00
10014;BME280;45684;48.358;10.746;2023-01-30T00:59:56;96711.25;;;-1.77;100.00
10014;BME280;45684;48.358;10.746;2023-01-30T01:02:24;96714.47;;;-1.75;100.00
10014;BME280;45684;48.358;10.746;2023-01-30T01:04:51;96715.28;;;-1.74;100.00
10014;BME280;45684;48.358;10.746;2023-01-30T01:07:19;96703.88;;;-1.75;100.00
10014;BME280;45684;48.358;10.746;2023-01-30T01:09:47;96698.00;;;-1.77;100.00
10014;BME280;45684;48.358;10.746;2023-01-30T01:12:15;96706.16;;;-1.78;100.00
10014;BME280;45684;48.358;10.746;2023-01-30T01:14:44;96699.00;;;-1.78;100.00
10014;BME280;45684;48.358;10.746;2023-01-30T01:17:12;96697.41;;;-1.79;100.00
10014;BME280;45684;48.358;10.746;2023-01-30T01:19:40;96691.06;;;-1.78;100.00
10014;BME280;45684;48.358;10.746;2023-01-30T01:22:08;96686.56;;;-1.77;100.00
10014;BME280;45684;48.358;10.746;2023-01-30T01:24:36;96682.09;;;-1.77;100.00
10014;BME280;45684;48.358;10.746;2023-01-30T01:27:04;96670.22;;;-1.74;100.00
10014;BME280;45684;48.358;10.746;2023-01-30T01:29:32;96679.66;;;-1.78;100.00
10014;BME280;45684;48.358;10.746;2023-01-30T01:32:01;96686.81;;;-1.79;100.00
10014;BME280;45684;48.358;10.746;2023-01-30T01:34:29;96672.75;;;-1.80;100.00
10014;BME280;45684;48.358;10.746;2023-01-30T01:36:57;96685.63;;;-1.83;100.00
10014;BME280;45684;48.358;10.746;2023-01-30T01:39:25;96684.97;;;-1.78;100.00
10014;BME280;45684;48.358;10.746;2023-01-30T01:42:12;96686.00;;;-1.80;100.00
10014;BME280;45684;48.358;10.746;2023-01-30T01:44:58;96686.22;;;-1.81;100.00
10014;BME280;45684;48.358;10.746;2023-01-30T01:47:29;96693.16;;;-1.80;100.00
10014;BME280;45684;48.358;10.746;2023-01-30T01:49:58;96693.16;;;-1.80;100.00
10014;BME280;45684;48.358;10.746;2023-01-30T01:52:27;96696.03;;;-1.82;100.00
10014;BME280;45684;48.358;10.746;2023-01-30T01:54:58;96701.09;;;-1.80;100.00
10014;BME280;45684;48.358;10.746;2023-01-30T01:57:31;96710.28;;;-1.83;100.00
10014;BME280;45684;48.358;10.746;2023-01-30T02:00:05;96708.91;;;-1.85;100.00
10014;BME280;45684;48.358;10.746;2023-01-30T02:02:45;96721.13;;;-1.84;100.00
10014;BME280;45684;48.358;10.746;2023-01-30T02:05:18;96721.50;;;-1.81;100.00
10014;BME280;45684;48.358;10.746;2023-01-30T02:07:49;96717.22;;;-1.82;100.00
10014;BME280;45684;48.358;10.746;2023-01-30T02:10:21;96721.13;;;-1.84;100.00
10014;BME280;45684;48.358;10.746;2023-01-30T02:12:50;96719.03;;;-1.82;100.00
10014;BME280;45684;48.358;10.746;2023-01-30T02:15:20;96721.69;;;-1.82;100.00
10014;BME280;45684;48.358;10.746;2023-01-30T02:17:49;96724.94;;;-1.80;100.00
10014;BME280;45684;48.358;10.746;2023-01-30T02:20:24;96714.78;;;-1.83;100.00
10014;BME280;45684;48.358;10.746;2023-01-30T02:23:19;96719.50;;;-1.85;100.00
10014;BME280;45684;48.358;10.746;2023-01-30T02:32:17;96720.56;;;-1.86;100.00
10014;BME280;45684;48.358;10.746;2023-01-30T02:34:58;96734.25;;;-1.89;100.00
10014;BME280;45684;48.358;10.746;2023-01-30T02:37:36;96739.53;;;-1.89;100.00
10014;BME280;45684;48.358;10.746;2023-01-30T02:40:17;96745.28;;;-1.92;100.00
10014;BME280;45684;48.358;10.746;2023-01-30T02:42:55;96739.16;;;-1.93;100.00
10014;BME280;45684;48.358;10.746;2023-01-30T02:45:32;96730.19;;;-1.92;100.00
10014;BME280;45684;48.358;10.746;2023-01-30T02:48:06;96732.63;;;-1.90;100.00
10014;BME280;45684;48.358;10.746;2023-01-30T02:50:37;96725.47;;;-1.90;100.00
10014;BME280;45684;48.358;10.746;2023-01-30T02:53:07;96723.41;;;-1.88;100.00
10014;BME280;45684;48.358;10.746;2023-01-30T02:55:38;96706.69;;;-1.88;100.00
10014;BME280;45684;48.358;10.746;2023-01-30T02:58:06;96707.97;;;-1.91;100.00
10014;BME280;45684;48.358;10.746;2023-01-30T03:00:47;96701.50;;;-1.95;100.00
10014;BME280;45684;48.358;10.746;2023-01-30T03:06:24;96695.97;;;-1.93;100.00
10014;BME280;45684;48.358;10.746;2023-01-30T03:09:05;96698.84;;;-1.95;100.00
10014;BME280;45684;48.358;10.746;2023-01-30T03:11:42;96704.94;;;-1.94;100.00
10014;BME280;45684;48.358;10.746;2023-01-30T03:14:17;96700.22;;;-1.92;100.00
10014;BME280;45684;48.358;10.746;2023-01-30T03:16:49;96702.66;;;-1.91;100.00
10014;BME280;45684;48.358;10.746;2023-01-30T03:19:20;96712.91;;;-1.94;100.00
10014;BME280;45684;48.358;10.746;2023-01-30T03:21:48;96713.84;;;-1.89;100.00
10014;BME280;45684;48.358;10.746;2023-01-30T03:24:16;96703.47;;;-1.90;100.00
10014;BME280;45684;48.358;10.746;2023-01-30T03:26:48;96696.34;;;-1.90;100.00
10014;BME280;45684;48.358;10.746;2023-01-30T03:29:19;96691.41;;;-1.86;100.00
10014;BME280;45684;48.358;10.746;2023-01-30T03:31:47;96689.41;;;-1.91;100.00
10014;BME280;45684;48.358;10.746;2023-01-30T03:34:15;96704.06;;;-1.88;100.00
10014;BME280;45684;48.358;10.746;2023-01-30T03:36:45;96687.25;;;-1.82;100.00
10014;BME280;45684;48.358;10.746;2023-01-30T03:39:14;96709.28;;;-1.82;100.00
10014;BME280;45684;48.358;10.746;2023-01-30T03:41:42;96696.22;;;-1.83;100.00
10014;BME280;45684;48.358;10.746;2023-01-30T03:44:10;96685.88;;;-1.85;100.00
10014;BME280;45684;48.358;10.746;2023-01-30T03:46:40;96690.50;;;-1.80;100.00
10014;BME280;45684;48.358;10.746;2023-01-30T03:49:08;96696.59;;;-1.80;100.00
10014;BME280;45684;48.358;10.746;2023-01-30T03:51:36;96701.66;;;-1.78;100.00
10014;BME280;45684;48.358;10.746;2023-01-30T03:54:05;96713.69;;;-1.75;100.00
10014;BME280;45684;48.358;10.746;2023-01-30T03:56:33;96708.44;;;-1.82;100.00
10014;BME280;45684;48.358;10.746;2023-01-30T03:59:01;96697.84;;;-1.82;100.00
10014;BME280;45684;48.358;10.746;2023-01-30T04:01:37;96714.59;;;-1.82;100.00
10014;BME280;45684;48.358;10.746;2023-01-30T04:04:05;96723.09;;;-1.80;100.00
10014;BME280;45684;48.358;10.746;2023-01-30T04:06:33;96717.56;;;-1.78;100.00
10014;BME280;45684;48.358;10.746;2023-01-30T04:09:03;96685.31;;;-1.75;100.00
10014;BME280;45684;48.358;10.746;2023-01-30T04:11:52;96686.38;;;-1.76;100.00
10014;BME280;45684;48.358;10.746;2023-01-30T04:14:21;96680.94;;;-1.81;100.00
10014;BME280;45684;48.358;10.746;2023-01-30T04:17:15;96689.47;;;-1.79;100.00
10014;BME280;45684;48.358;10.746;2023-01-30T04:20:07;96662.38;;;-1.81;100.00
10014;BME280;45684;48.358;10.746;2023-01-30T04:22:36;96653.47;;;-1.87;100.00
10014;BME280;45684;48.358;10.746;2023-01-30T04:25:05;96649.00;;;-1.86;100.00
10014;BME280;45684;48.358;10.746;2023-01-30T04:27:34;96642.06;;;-1.87;100.00
10014;BME280;45684;48.358;10.746;2023-01-30T04:30:11;96647.03;;;-1.91;100.00
10014;BME280;45684;48.358;10.746;2023-01-30T04:32:40;96652.53;;;-1.92;100.00
10014;BME280;45684;48.358;10.746;2023-01-30T04:35:09;96646.41;;;-1.93;100.00
10014;BME280;45684;48.358;10.746;2023-01-30T04:37:38;96645.19;;;-1.90;100.00
10014;BME280;45684;48.358;10.746;2023-01-30T04:40:09;96636.44;;;-1.91;100.00
10014;BME280;45684;48.358;10.746;2023-01-30T04:42:39;96623.38;;;-1.92;100.00
10014;BME280;45684;48.358;10.746;2023-01-30T04:45:36;96609.19;;;-1.98;100.00
10014;BME280;45684;48.358;10.746;2023-01-30T04:48:04;96617.28;;;-1.93;100.00
10014;BME280;45684;48.358;10.746;2023-01-30T04:50:33;96597.00;;;-1.99;100.00
10014;BME280;45684;48.358;10.746;2023-01-30T04:53:01;96592.50;;;-1.98;100.00
10014;BME280;45684;48.358;10.746;2023-01-30T04:55:29;96602.06;;;-1.97;100.00
10014;BME280;45684;48.358;10.746;2023-01-30T04:57:58;96601.84;;;-1.96;100.00
10014;BME280;45684;48.358;10.746;2023-01-30T05:00:26;96615.28;;;-1.97;100.00
10014;BME280;45684;48.358;10.746;2023-01-30T05:02:58;96616.03;;;-1.90;100.00
10014;BME280;45684;48.358;10.746;2023-01-30T05:05:26;96627.44;;;-1.90;100.00
10014;BME280;45684;48.358;10.746;2023-01-30T05:07:54;96616.03;;;-1.90;100.00
10014;BME280;45684;48.358;10.746;2023-01-30T05:10:22;96630.66;;;-1.88;100.00
10014;BME280;45684;48.358;10.746;2023-01-30T05:12:50;96635.75;;;-1.86;100.00
10014;BME280;45684;48.358;10.746;2023-01-30T05:15:19;96625.72;;;-1.84;100.00
10014;BME280;45684;48.358;10.746;2023-01-30T05:17:47;96636.09;;;-1.83;100.00
10014;BME280;45684;48.358;10.746;2023-01-30T05:20:15;96632.63;;;-1.83;100.00
10014;BME280;45684;48.358;10.746;2023-01-30T05:22:43;96624.69;;;-1.83;100.00
10014;BME280;45684;48.358;10.746;2023-01-30T05:25:11;96635.41;;;-1.78;100.00
10014;BME280;45684;48.358;10.746;2023-01-30T05:27:39;96628.06;;;-1.76;100.00
10014;BME280;45684;48.358;10.746;2023-01-30T05:30:08;96614.81;;;-1.76;100.00
10014;BME280;45684;48.358;10.746;2023-01-30T05:32:38;96614.56;;;-1.74;100.00
10014;BME280;45684;48.358;10.746;2023-01-30T05:35:06;96618.63;;;-1.72;100.00
10014;BME280;45684;48.358;10.746;2023-01-30T05:37:34;96608.22;;;-1.73;100.00
10014;BME280;45684;48.358;10.746;2023-01-30T05:40:04;96599.13;;;-1.66;100.00
10014;BME280;45684;48.358;10.746;2023-01-30T05:42:32;96598.47;;;-1.61;100.00
10014;BME280;45684;48.358;10.746;2023-01-30T05:45:00;96597.19;;;-1.59;100.00
10014;BME280;45684;48.358;10.746;2023-01-30T05:47:28;96584.53;;;-1.57;100.00
10014;BME280;45684;48.358;10.746;2023-01-30T05:49:57;96605.50;;;-1.55;100.00
10014;BME280;45684;48.358;10.746;2023-01-30T05:52:25;96598.94;;;-1.52;100.00
10014;BME280;45684;48.358;10.746;2023-01-30T05:54:53;96602.47;;;-1.59;100.00
10014;BME280;45684;48.358;10.746;2023-01-30T05:57:21;96602.84;;;-1.55;100.00
10014;BME280;45684;48.358;10.746;2023-01-30T05:59:49;96626.69;;;-1.55;100.00
10014;BME280;45684;48.358;10.746;2023-01-30T06:02:16;96635.59;;;-1.49;100.00
10014;BME280;45684;48.358;10.746;2023-01-30T06:04:44;96631.31;;;-1.50;100.00
10014;BME280;45684;48.358;10.746;2023-01-30T06:07:14;96621.53;;;-1.50;100.00
10014;BME280;45684;48.358;10.746;2023-01-30T06:09:42;96615.66;;;-1.52;100.00
10014;BME280;45684;48.358;10.746;2023-01-30T06:12:10;96618.06;;;-1.50;100.00
10014;BME280;45684;48.358;10.746;2023-01-30T06:14:38;96621.88;;;-1.46;100.00
10014;BME280;45684;48.358;10.746;2023-01-30T06:17:06;96623.28;;;-1.44;100.00
10014;BME280;45684;48.358;10.746;2023-01-30T06:19:33;96616.69;;;-1.41;100.00
10014;BME280;45684;48.358;10.746;2023-01-30T06:22:01;96625.81;;;-1.37;100.00
10014;BME280;45684;48.358;10.746;2023-01-30T06:24:31;96627.66;;;-1.38;100.00
10014;BME280;45684;48.358;10.746;2023-01-30T06:26:58;96632.28;;;-1.33;100.00
10014;BME280;45684;48.358;10.746;2023-01-30T06:29:26;96623.06;;;-1.31;100.00
10014;BME280;45684;48.358;10.746;2023-01-30T06:31:54;96624.00;;;-1.25;100.00
10014;BME280;45684;48.358;10.746;2023-01-30T06:34:22;96622.84;;;-1.29;100.00
10014;BME280;45684;48.358;10.746;2023-01-30T06:36:50;96620.97;;;-1.29;100.00
10014;BME280;45684;48.358;10.746;2023-01-30T06:39:18;96619.94;;;-1.27;100.00
10014;BME280;45684;48.358;10.746;2023-01-30T06:41:47;96625.00;;;-1.26;100.00
10014;BME280;45684;48.358;10.746;2023-01-30T06:44:15;96631.94;;;-1.25;100.00
10014;BME280;45684;48.358;10.746;2023-01-30T06:46:43;96636.56;;;-1.20;100.00
10014;BME280;45684;48.358;10.746;2023-01-30T06:49:11;96637.81;;;-1.23;100.00
10014;BME280;45684;48.358;10.746;2023-01-30T06:51:38;96645.34;;;-1.20;100.00
10014;BME280;45684;48.358;10.746;2023-01-30T06:54:06;96635.75;;;-1.21;100.00
10014;BME280;45684;48.358;10.746;2023-01-30T06:56:34;96616.25;;;-1.15;100.00
10014;BME280;45684;48.358;10.746;2023-01-30T06:59:03;96616.50;;;-1.16;100.00
10014;BME280;45684;48.358;10.746;2023-01-30T07:01:31;96607.72;;;-1.17;100.00
10014;BME280;45684;48.358;10.746;2023-01-30T07:03:59;96610.16;;;-1.15;100.00
10014;BME280;45684;48.358;10.746;2023-01-30T07:06:27;96603.81;;;-1.14;100.00
10014;BME280;45684;48.358;10.746;2023-01-30T07:08:55;96618.91;;;-1.15;100.00
10014;BME280;45684;48.358;10.746;2023-01-30T07:11:24;96619.72;;;-1.14;100.00
10014;BME280;45684;48.358;10.746;2023-01-30T07:13:52;96614.41;;;-1.14;100.00
10014;BME280;45684;48.358;10.746;2023-01-30T07:16:21;96615.34;;;-1.09;100.00
10014;BME280;45684;48.358;10.746;2023-01-30T07:18:55;96610.81;;;-1.08;100.00
10014;BME280;45684;48.358;10.746;2023-01-30T07:21:24;96596.31;;;-1.06;100.00
10014;BME280;45684;48.358;10.746;2023-01-30T07:23:52;96599.53;;;-1.04;100.00
10014;BME280;45684;48.358;10.746;2023-01-30T07:26:20;96599.53;;;-1.04;100.00
10014;BME280;45684;48.358;10.746;2023-01-30T07:28:49;96600.69;;;-0.99;100.00
10014;BME280;45684;48.358;10.746;2023-01-30T07:31:17;96597.81;;;-0.98;100.00
10014;BME280;45684;48.358;10.746;2023-01-30T07:33:46;96595.72;;;-0.96;100.00
10014;BME280;45684;48.358;10.746;2023-01-30T07:36:14;96598.72;;;-0.92;100.00
10014;BME280;45684;48.358;10.746;2023-01-30T07:38:42;96606.56;;;-0.86;100.00
10014;BME280;45684;48.358;10.746;2023-01-30T07:41:10;96602.03;;;-0.85;100.00
10014;BME280;45684;48.358;10.746;2023-01-30T07:43:38;96597.88;;;-0.81;100.00
10014;BME280;45684;48.358;10.746;2023-01-30T07:46:05;96594.19;;;-0.80;100.00
10014;BME280;45684;48.358;10.746;2023-01-30T07:48:33;96599.50;;;-0.80;100.00
10014;BME280;45684;48.358;10.746;2023-01-30T07:51:02;96595.59;;;-0.78;100.00
10014;BME280;45684;48.358;10.746;2023-01-30T07:53:30;96595.34;;;-0.76;100.00
10014;BME280;45684;48.358;10.746;2023-01-30T07:55:58;96595.13;;;-0.74;100.00
10014;BME280;45684;48.358;10.746;2023-01-30T07:58:26;96596.25;;;-0.70;100.00
10014;BME280;45684;48.358;10.746;2023-01-30T08:00:56;96589.69;;;-0.68;100.00
10014;BME280;45684;48.358;10.746;2023-01-30T08:03:24;96605.47;;;-0.61;100.00
10014;BME280;45684;48.358;10.746;2023-01-30T08:05:52;96600.84;;;-0.54;100.00
10014;BME280;45684;48.358;10.746;2023-01-30T08:08:21;96594.59;;;-0.48;100.00
10014;BME280;45684;48.358;10.746;2023-01-30T08:10:49;96589.53;;;-0.49;100.00
10014;BME280;45684;48.358;10.746;2023-01-30T08:13:17;96585.34;;;-0.45;100.00
10014;BME280;45684;48.358;10.746;2023-01-30T08:15:45;96591.13;;;-0.48;100.00
10014;BME280;45684;48.358;10.746;2023-01-30T08:18:13;96586.97;;;-0.44;100.00
10014;BME280;45684;48.358;10.746;2023-01-30T08:20:41;96579.09;;;-0.39;100.00
10014;BME280;45684;48.358;10.746;2023-01-30T08:23:10;96588.22;;;-0.35;100.00
10014;BME280;45684;48.358;10.746;2023-01-30T08:25:39;96586.19;;;-0.28;100.00
10014;BME280;45684;48.358;10.746;2023-01-30T08:28:07;96588.97;;;-0.23;100.00
10014;BME280;45684;48.358;10.746;2023-01-30T08:30:35;96591.56;;;-0.11;100.00
10014;BME280;45684;48.358;10.746;2023-01-30T08:33:03;96582.19;;;-0.02;100.00
10014;BME280;45684;48.358;10.746;2023-01-30T08:35:31;96588.63;;;0.02;100.00
10014;BME280;45684;48.358;10.746;2023-01-30T08:37:58;96573.91;;;0.11;100.00
10014;BME280;45684;48.358;10.746;2023-01-30T08:40:28;96571.81;;;0.13;100.00
10014;BME280;45684;48.358;10.746;2023-01-30T08:42:58;96566.09;;;0.21;100.00
10014;BME280;45684;48.358;10.746;2023-01-30T08:45:26;96572.81;;;0.24;100.00
10014;BME280;45684;48.358;10.746;2023-01-30T08:47:57;96570.44;;;0.28;100.00
10014;BME280;45684;48.358;10.746;2023-01-30T08:50:25;96576.59;;;0.28;100.00
10014;BME280;45684;48.358;10.746;2023-01-30T08:52:53;96583.94;;;0.38;100.00
10014;BME280;45684;48.358;10.746;2023-01-30T08:55:21;96589.00;;;0.39;100.00
10014;BME280;45684;48.358;10.746;2023-01-30T08:57:49;96590.16;;;0.43;100.00
10014;BME280;45684;48.358;10.746;2023-01-30T09:00:19;96587.22;;;0.45;100.00
10014;BME280;45684;48.358;10.746;2023-01-30T09:02:47;96582.78;;;0.50;100.00
10014;BME280;45684;48.358;10.746;2023-01-30T09:05:15;96575.25;;;0.42;100.00
10014;BME280;45684;48.358;10.746;2023-01-30T09:07:43;96578.69;;;0.43;100.00
10014;BME280;45684;48.358;10.746;2023-01-30T09:10:11;96581.84;;;0.40;100.00
10014;BME280;45684;48.358;10.746;2023-01-30T09:12:39;96570.56;;;0.49;100.00
10014;BME280;45684;48.358;10.746;2023-01-30T09:15:08;96579.91;;;0.52;100.00
10014;BME280;45684;48.358;10.746;2023-01-30T09:17:37;96581.28;;;0.55;100.00
10014;BME280;45684;48.358;10.746;2023-01-30T09:20:06;96582.06;;;0.55;100.00
10014;BME280;45684;48.358;10.746;2023-01-30T09:22:35;96567.03;;;0.61;100.00
10014;BME280;45684;48.358;10.746;2023-01-30T09:25:04;96558.31;;;0.65;100.00
10014;BME280;45684;48.358;10.746;2023-01-30T09:27:32;96550.81;;;0.62;100.00
10014;BME280;45684;48.358;10.746;2023-01-30T09:30:00;96556.19;;;0.67;100.00
10014;BME280;45684;48.358;10.746;2023-01-30T09:32:28;96554.41;;;0.73;100.00
10014;BME280;45684;48.358;10.746;2023-01-30T09:34:58;96526.19;;;0.72;100.00
10014;BME280;45684;48.358;10.746;2023-01-30T09:37:26;96521.19;;;0.75;100.00
10014;BME280;45684;48.358;10.746;2023-01-30T09:39:54;96506.25;;;0.74;100.00
10014;BME280;45684;48.358;10.746;2023-01-30T09:42:41;96505.28;;;0.81;100.00
10014;BME280;45684;48.358;10.746;2023-01-30T09:45:26;96529.56;;;0.84;100.00
10014;BME280;45684;48.358;10.746;2023-01-30T09:48:05;96519.06;;;0.94;100.00
10014;BME280;45684;48.358;10.746;2023-01-30T09:50:53;96513.66;;;1.11;100.00
10014;BME280;45684;48.358;10.746;2023-01-30T09:53:30;96499.13;;;1.19;100.00
10014;BME280;45684;48.358;10.746;2023-01-30T09:56:01;96499.19;;;1.24;100.00
10014;BME280;45684;48.358;10.746;2023-01-30T09:58:36;96491.31;;;1.34;100.00
10014;BME280;45684;48.358;10.746;2023-01-30T10:01:17;96487.56;;;1.35;100.00
10014;BME280;45684;48.358;10.746;2023-01-30T10:03:57;96496.41;;;1.36;100.00
10014;BME280;45684;48.358;10.746;2023-01-30T10:06:30;96478.84;;;1.40;100.00
10014;BME280;45684;48.358;10.746;2023-01-30T10:09:07;96468.81;;;1.47;100.00
10014;BME280;45684;48.358;10.746;2023-01-30T10:11:51;96448.91;;;1.55;100.00
10014;BME280;45684;48.358;10.746;2023-01-30T10:14:34;96445.22;;;1.61;100.00
10014;BME280;45684;48.358;10.746;2023-01-30T10:17:21;96451.66;;;1.65;100.00
10014;BME280;45684;48.358;10.746;2023-01-30T10:20:05;96444.72;;;1.64;100.00
10014;BME280;45684;48.358;10.746;2023-01-30T10:22:48;96429.28;;;1.66;100.00
10014;BME280;45684;48.358;10.746;2023-01-30T10:25:26;96433.06;;;1.70;100.00
10014;BME280;45684;48.358;10.746;2023-01-30T10:28:00;96427.75;;;1.75;100.00
10014;BME280;45684;48.358;10.746;2023-01-30T10:30:29;96439.31;;;1.86;100.00
10014;BME280;45684;48.358;10.746;2023-01-30T10:33:01;96437.28;;;1.98;100.00
10014;BME280;45684;48.358;10.746;2023-01-30T10:35:33;96435.75;;;2.07;100.00
10014;BME280;45684;48.358;10.746;2023-01-30T10:38:10;96443.84;;;2.17;100.00
10014;BME280;45684;48.358;10.746;2023-01-30T10:40:46;96444.16;;;2.26;100.00
10014;BME280;45684;48.358;10.746;2023-01-30T10:43:22;96443.44;;;2.36;100.00
10014;BME280;45684;48.358;10.746;2023-01-30T10:45:58;96446.94;;;2.41;100.00
10014;BME280;45684;48.358;10.746;2023-01-30T10:48:47;96445.38;;;2.50;100.00
10014;BME280;45684;48.358;10.746;2023-01-30T10:51:28;96462.22;;;2.51;100.00
10014;BME280;45684;48.358;10.746;2023-01-30T10:54:03;96456.66;;;2.58;100.00
10014;BME280;45684;48.358;10.746;2023-01-30T10:56:38;96464.16;;;2.66;100.00
10014;BME280;45684;48.358;10.746;2023-01-30T10:59:20;96458.91;;;2.76;100.00
10014;BME280;45684;48.358;10.746;2023-01-30T11:01:57;96445.78;;;2.74;100.00
10014;BME280;45684;48.358;10.746;2023-01-30T11:04:30;96443.38;;;2.73;100.00
10014;BME280;45684;48.358;10.746;2023-01-30T11:07:00;96440.72;;;2.73;100.00
10014;BME280;45684;48.358;10.746;2023-01-30T11:09:41;96446.34;;;2.71;100.00
10014;BME280;45684;48.358;10.746;2023-01-30T11:12:10;96444.94;;;2.64;100.00
10014;BME280;45684;48.358;10.746;2023-01-30T11:14:49;96429.69;;;2.59;100.00
10014;BME280;45684;48.358;10.746;2023-01-30T11:17:18;96429.41;;;2.55;100.00
10014;BME280;45684;48.358;10.746;2023-01-30T11:19:53;96420.53;;;2.45;100.00
10014;BME280;45684;48.358;10.746;2023-01-30T11:22:23;96428.03;;;2.43;100.00
10014;BME280;45684;48.358;10.746;2023-01-30T11:25:03;96421.84;;;2.42;100.00
10014;BME280;45684;48.358;10.746;2023-01-30T11:27:33;96419.69;;;2.34;100.00
10014;BME280;45684;48.358;10.746;2023-01-30T11:30:04;96428.19;;;2.31;100.00
10014;BME280;45684;48.358;10.746;2023-01-30T11:32:32;96427.16;;;2.37;100.00
10014;BME280;45684;48.358;10.746;2023-01-30T11:35:03;96421.25;;;2.30;100.00
10014;BME280;45684;48.358;10.746;2023-01-30T11:37:44;96414.84;;;2.31;100.00
10014;BME280;45684;48.358;10.746;2023-01-30T11:40:22;96411.09;;;2.27;100.00
10014;BME280;45684;48.358;10.746;2023-01-30T11:42:57;96410.03;;;2.28;100.00
10014;BME280;45684;48.358;10.746;2023-01-30T11:45:25;96399.13;;;2.29;100.00
10014;BME280;45684;48.358;10.746;2023-01-30T11:47:57;96403.38;;;2.30;100.00
10014;BME280;45684;48.358;10.746;2023-01-30T11:50:37;96393.78;;;2.29;100.00
10014;BME280;45684;48.358;10.746;2023-01-30T11:53:25;96393.25;;;2.33;100.00
10014;BME280;45684;48.358;10.746;2023-01-30T11:55:57;96384.72;;;2.36;100.00
10014;BME280;45684;48.358;10.746;2023-01-30T11:58:34;96387.13;;;2.37;100.00
10014;BME280;45684;48.358;10.746;2023-01-30T12:01:03;96369.53;;;2.36;100.00
10014;BME280;45684;48.358;10.746;2023-01-30T12:03:33;96377.50;;;2.31;100.00
10014;BME280;45684;48.358;10.746;2023-01-30T12:06:06;96370.59;;;2.35;100.00
10014;BME280;45684;48.358;10.746;2023-01-30T12:08:36;96378.03;;;2.33;100.00
10014;BME280;45684;48.358;10.746;2023-01-30T12:11:25;96380.19;;;2.36;100.00
10014;BME280;45684;48.358;10.746;2023-01-30T12:14:00;96359.63;;;2.32;100.00
10014;BME280;45684;48.358;10.746;2023-01-30T12:16:43;96359.91;;;2.30;100.00
10014;BME280;45684;48.358;10.746;2023-01-30T12:19:23;96350.81;;;2.31;100.00
10014;BME280;45684;48.358;10.746;2023-01-30T12:21:57;96344.97;;;2.34;100.00
10014;BME280;45684;48.358;10.746;2023-01-30T12:24:31;96334.31;;;2.34;100.00
10014;BME280;45684;48.358;10.746;2023-01-30T12:27:05;96323.38;;;2.36;100.00
10014;BME280;45684;48.358;10.746;2023-01-30T12:29:39;96325.50;;;2.34;100.00
10014;BME280;45684;48.358;10.746;2023-01-30T12:32:12;96317.75;;;2.37;100.00
10014;BME280;45684;48.358;10.746;2023-01-30T12:34:41;96297.50;;;2.41;100.00
10014;BME280;45684;48.358;10.746;2023-01-30T12:37:27;96294.59;;;2.43;100.00
10014;BME280;45684;48.358;10.746;2023-01-30T12:40:03;96311.44;;;2.53;100.00
10014;BME280;45684;48.358;10.746;2023-01-30T12:42:52;96312.53;;;2.58;100.00
10014;BME280;45684;48.358;10.746;2023-01-30T12:45:24;96312.00;;;2.66;100.00
10014;BME280;45684;48.358;10.746;2023-01-30T12:48:20;96317.09;;;2.72;100.00
10014;BME280;45684;48.358;10.746;2023-01-30T12:51:04;96308.81;;;2.74;100.00
10014;BME280;45684;48.358;10.746;2023-01-30T12:53:42;96297.63;;;2.77;100.00
10014;BME280;45684;48.358;10.746;2023-01-30T12:56:42;96302.47;;;2.80;100.00
10014;BME280;45684;48.358;10.746;2023-01-30T12:59:18;96314.72;;;2.81;100.00
10014;BME280;45684;48.358;10.746;2023-01-30T13:02:00;96321.94;;;2.80;100.00
10014;BME280;45684;48.358;10.746;2023-01-30T13:04:42;96318.19;;;2.76;100.00
10014;BME280;45684;48.358;10.746;2023-01-30T13:07:38;96318.50;;;2.90;100.00
10014;BME280;45684;48.358;10.746;2023-01-30T13:10:15;96331.09;;;3.05;100.00
10014;BME280;45684;48.358;10.746;2023-01-30T13:12:51;96328.13;;;3.01;100.00
10014;BME280;45684;48.358;10.746;2023-01-30T13:15:32;96330.81;;;3.01;100.00
10014;BME280;45684;48.358;10.746;2023-01-30T13:18:07;96324.91;;;2.89;100.00